sensor_id;sensor_type;location;lat;lon;timestamp;pressure;altitude;pressure_sealevel;temperature;humidity
63111;BME280;49201;53.426;10.300;2023-04-25T00:00:56;100504.81;;;8.24;100.00
63111;BME280;49201;53.426;10.300;2023-04-25T00:03:22;100504.00;;;8.25;100.00
63111;BME280;49201;53.426;10.300;2023-04-25T00:05:50;100510.84;;;8.28;100.00
63111;BME280;49201;53.426;10.300;2023-04-25T00:08:17;100510.94;;;8.31;100.00
63111;BME280;49201;53.426;10.300;2023-04-25T00:10:42;100503.19;;;8.26;100.00
63111;BME280;49201;53.426;10.300;2023-04-25T00:13:08;100517.72;;;8.30;100.00
63111;BME280;49201;53.426;10.300;2023-04-25T00:15:34;100509.22;;;8.30;100.00
63111;BME280;49201;53.426;10.300;2023-04-25T00:18:01;100515.19;;;8.32;100.00
63111;BME280;49201;53.426;10.300;2023-04-25T00:20:26;100509.25;;;8.31;100.00
63111;BME280;49201;53.426;10.300;2023-04-25T00:22:52;100519.47;;;8.33;100.00
63111;BME280;49201;53.426;10.300;2023-04-25T00:25:20;100522.00;;;8.33;100.00
63111;BME280;49201;53.426;10.300;2023-04-25T00:27:46;100519.41;;;8.30;100.00
63111;BME280;49201;53.426;10.300;2023-04-25T00:30:12;100514.28;;;8.28;100.00
63111;BME280;49201;53.426;10.300;2023-04-25T00:32:37;100509.16;;;8.28;100.00
63111;BME280;49201;53.426;10.300;2023-04-25T00:35:03;100516.03;;;8.31;100.00
63111;BME280;49201;53.426;10.300;2023-04-25T00:37:29;100519.34;;;8.27;100.00
63111;BME280;49201;53.426;10.300;2023-04-25T00:39:55;100525.34;;;8.29;100.00
63111;BME280;49201;53.426;10.300;2023-04-25T00:42:21;100525.97;;;8.20;100.00
63111;BME280;49201;53.426;10.300;2023-04-25T00:44:47;100520.75;;;8.16;100.00
63111;BME280;49201;53.426;10.300;2023-04-25T00:47:13;100525.88;;;8.17;100.00
63111;BME280;49201;53.426;10.300;2023-04-25T00:49:38;100530.16;;;8.18;100.00
63111;BME280;49201;53.426;10.300;2023-04-25T00:52:04;100534.44;;;8.19;100.00
63111;BME280;49201;53.426;10.300;2023-04-25T00:54:30;100532.00;;;8.22;100.00
63111;BME280;49201;53.426;10.300;2023-04-25T00:56:56;100538.63;;;8.17;100.00
63111;BME280;49201;53.426;10.300;2023-04-25T00:59:22;100538.66;;;8.19;100.00
63111;BME280;49201;53.426;10.300;2023-04-25T01:01:47;100533.41;;;8.13;100.00
63111;BME280;49201;53.426;10.300;2023-04-25T01:04:13;100531.56;;;8.06;100.00
63111;BME280;49201;53.426;10.300;2023-04-25T01:06:39;100537.59;;;8.09;100.00
63111;BME280;49201;53.426;10.300;2023-04-25T01:09:05;100535.94;;;8.11;100.00
63111;BME280;49201;53.426;10.300;2023-04-25T01:11:31;100547.88;;;8.14;100.00
63111;BME280;49201;53.426;10.300;2023-04-25T01:13:57;100541.06;;;8.13;100.00
63111;BME280;49201;53.426;10.300;2023-04-25T01:16:23;100540.19;;;8.11;100.00
63111;BME280;49201;53.426;10.300;2023-04-25T01:18:49;100535.81;;;8.07;100.00
63111;BME280;49201;53.426;10.300;2023-04-25T01:21:16;100543.34;;;8.02;100.00
63111;BME280;49201;53.426;10.300;2023-04-25T01:23:43;100534.81;;;8.00;100.00
63111;BME280;49201;53.426;10.300;2023-04-25T01:26:10;100543.38;;;8.04;100.00
63111;BME280;49201;53.426;10.300;2023-04-25T01:28:37;100546.88;;;8.07;100.00
63111;BME280;49201;53.426;10.300;2023-04-25T01:31:04;100552.00;;;8.09;100.00
63111;BME280;49201;53.426;10.300;2023-04-25T01:33:31;100546.13;;;8.11;100.00
63111;BME280;49201;53.426;10.300;2023-04-25T01:35:56;100541.84;;;8.10;100.00
63111;BME280;49201;53.426;10.300;2023-04-25T01:38:21;100551.19;;;8.10;100.00
63111;BME280;49201;53.426;10.300;2023-04-25T01:40:49;100551.88;;;8.03;100.00
63111;BME280;49201;53.426;10.300;2023-04-25T01:43:18;100555.91;;;7.95;100.00
63111;BME280;49201;53.426;10.300;2023-04-25T01:45:44;100558.47;;;7.95;100.00
63111;BME280;49201;53.426;10.300;2023-04-25T01:48:12;100553.31;;;7.93;100.00
63111;BME280;49201;53.426;10.300;2023-04-25T01:50:39;100562.53;;;7.88;100.00
63111;BME280;49201;53.426;10.300;2023-04-25T01:53:05;100566.72;;;7.85;100.00
63111;BME280;49201;53.426;10.300;2023-04-25T01:55:31;100564.97;;;7.84;100.00
63111;BME280;49201;53.426;10.300;2023-04-25T01:58:02;100572.59;;;7.82;100.00
63111;BME280;49201;53.426;10.300;2023-04-25T02:00:50;100573.38;;;7.80;100.00
63111;BME280;49201;53.426;10.300;2023-04-25T02:03:16;100572.44;;;7.76;100.00
63111;BME280;49201;53.426;10.300;2023-04-25T02:05:41;100579.25;;;7.77;100.00
63111;BME280;49201;53.426;10.300;2023-04-25T02:08:10;100581.72;;;7.74;100.00
63111;BME280;49201;53.426;10.300;2023-04-25T02:10:36;100582.53;;;7.73;100.00
63111;BME280;49201;53.426;10.300;2023-04-25T02:13:13;100585.81;;;7.69;100.00
63111;BME280;49201;53.426;10.300;2023-04-25T02:15:44;100593.53;;;7.71;100.00
63111;BME280;49201;53.426;10.300;2023-04-25T02:18:14;100592.59;;;7.67;100.00
63111;BME280;49201;53.426;10.300;2023-04-25T02:20:42;100594.22;;;7.65;100.00
63111;BME280;49201;53.426;10.300;2023-04-25T02:23:07;100598.41;;;7.63;100.00
63111;BME280;49201;53.426;10.300;2023-04-25T02:25:33;100605.19;;;7.63;100.00
63111;BME280;49201;53.426;10.300;2023-04-25T02:27:58;100602.59;;;7.61;100.00
63111;BME280;49201;53.426;10.300;2023-04-25T02:30:24;100601.78;;;7.62;100.00
63111;BME280;49201;53.426;10.300;2023-04-25T02:32:50;100608.47;;;7.59;100.00
63111;BME280;49201;53.426;10.300;2023-04-25T02:35:15;100608.41;;;7.56;100.00
63111;BME280;49201;53.426;10.300;2023-04-25T02:37:41;100602.38;;;7.52;100.00
63111;BME280;49201;53.426;10.300;2023-04-25T02:40:07;100605.75;;;7.53;100.00
63111;BME280;49201;53.426;10.300;2023-04-25T02:42:34;100609.88;;;7.48;100.00
63111;BME280;49201;53.426;10.300;2023-04-25T02:44:59;100608.84;;;7.41;100.00
63111;BME280;49201;53.426;10.300;2023-04-25T02:47:25;100607.16;;;7.42;100.00
63111;BME280;49201;53.426;10.300;2023-04-25T02:49:51;100613.09;;;7.41;100.00
63111;BME280;49201;53.426;10.300;2023-04-25T02:52:17;100620.63;;;7.38;100.00
63111;BME280;49201;53.426;10.300;2023-04-25T02:54:44;100622.91;;;7.29;100.00
63111;BME280;49201;53.426;10.300;2023-04-25T02:57:10;100624.50;;;7.25;100.00
63111;BME280;49201;53.426;10.300;2023-04-25T02:59:36;100620.91;;;7.19;100.00
63111;BME280;49201;53.426;10.300;2023-04-25T03:02:02;100626.69;;;7.13;100.00
63111;BME280;49201;53.426;10.300;2023-04-25T03:04:28;100624.16;;;7.13;100.00
63111;BME280;49201;53.426;10.300;2023-04-25T03:06:54;100625.03;;;7.14;100.00
63111;BME280;49201;53.426;10.300;2023-04-25T03:09:20;100630.13;;;7.14;100.00
63111;BME280;49201;53.426;10.300;2023-04-25T03:11:46;100625.03;;;7.14;100.00
63111;BME280;49201;53.426;10.300;2023-04-25T03:14:12;100625.88;;;7.14;100.00
63111;BME280;49201;53.426;10.300;2023-04-25T03:16:38;100630.16;;;7.15;100.00
63111;BME280;49201;53.426;10.300;2023-04-25T03:19:04;100630.91;;;7.13;100.00
63111;BME280;49201;53.426;10.300;2023-04-25T03:21:34;100639.41;;;7.13;100.00
63111;BME280;49201;53.426;10.300;2023-04-25T03:24:01;100642.63;;;7.08;100.00
63111;BME280;49201;53.426;10.300;2023-04-25T03:26:28;100641.75;;;7.06;100.00
63111;BME280;49201;53.426;10.300;2023-04-25T03:28:53;100647.72;;;7.06;100.00
63111;BME280;49201;53.426;10.300;2023-04-25T03:31:19;100645.09;;;7.05;100.00
63111;BME280;49201;53.426;10.300;2023-04-25T03:33:45;100651.09;;;7.07;100.00
63111;BME280;49201;53.426;10.300;2023-04-25T03:36:10;100646.88;;;7.07;100.00
63111;BME280;49201;53.426;10.300;2023-04-25T03:38:36;100657.88;;;7.06;100.00
63111;BME280;49201;53.426;10.300;2023-04-25T03:41:02;100658.66;;;7.04;100.00
63111;BME280;49201;53.426;10.300;2023-04-25T03:43:47;100663.66;;;7.01;100.00
63111;BME280;49201;53.426;10.300;2023-04-25T03:46:16;100663.50;;;6.96;100.00
63111;BME280;49201;53.426;10.300;2023-04-25T03:48:41;100665.19;;;6.96;100.00
63111;BME280;49201;53.426;10.300;2023-04-25T03:51:09;100668.34;;;6.89;100.00
63111;BME280;49201;53.426;10.300;2023-04-25T03:53:38;100667.41;;;6.85;100.00
63111;BME280;49201;53.426;10.300;2023-04-25T03:56:19;100674.69;;;6.75;100.00
63111;BME280;49201;53.426;10.300;2023-04-25T03:58:47;100668.66;;;6.71;100.00
63111;BME280;49201;53.426;10.300;2023-04-25T04:01:15;100674.44;;;6.67;100.00
63111;BME280;49201;53.426;10.300;2023-04-25T04:03:40;100679.41;;;6.63;100.00
63111;BME280;49201;53.426;10.300;2023-04-25T04:06:07;100676.81;;;6.61;100.00
63111;BME280;49201;53.426;10.300;2023-04-25T04:08:36;100677.66;;;6.62;100.00
63111;BME280;49201;53.426;10.300;2023-04-25T04:11:02;100678.41;;;6.59;100.00
63111;BME280;49201;53.426;10.300;2023-04-25T04:13:28;100686.81;;;6.57;100.00
63111;BME280;49201;53.426;10.300;2023-04-25T04:15:54;100689.41;;;6.58;100.00
63111;BME280;49201;53.426;10.300;2023-04-25T04:18:21;100681.84;;;6.60;100.00
63111;BME280;49201;53.426;10.300;2023-04-25T04:20:47;100692.91;;;6.62;100.00
63111;BME280;49201;53.426;10.300;2023-04-25T04:23:13;100696.16;;;6.56;100.00
63111;BME280;49201;53.426;10.300;2023-04-25T04:25:39;100699.34;;;6.51;100.00
63111;BME280;49201;53.426;10.300;2023-04-25T04:28:27;100702.53;;;6.45;100.00
63111;BME280;49201;53.426;10.300;2023-04-25T04:31:00;100710.16;;;6.45;100.00
63111;BME280;49201;53.426;10.300;2023-04-25T04:33:28;100718.63;;;6.44;100.00
63111;BME280;49201;53.426;10.300;2023-04-25T04:35:58;100711.16;;;6.49;100.00
63111;BME280;49201;53.426;10.300;2023-04-25T04:38:24;100708.63;;;6.50;100.00
63111;BME280;49201;53.426;10.300;2023-04-25T04:40:52;100721.47;;;6.53;100.00
63111;BME280;49201;53.426;10.300;2023-04-25T04:43:32;100717.22;;;6.52;100.00
63111;BME280;49201;53.426;10.300;2023-04-25T04:46:22;100726.66;;;6.56;100.00
63111;BME280;49201;53.426;10.300;2023-04-25T04:49:15;100729.22;;;6.56;100.00
63111;BME280;49201;53.426;10.300;2023-04-25T04:51:58;100737.19;;;6.42;100.00
63111;BME280;49201;53.426;10.300;2023-04-25T04:54:54;100735.47;;;6.41;100.00
63111;BME280;49201;53.426;10.300;2023-04-25T04:57:58;100733.88;;;6.44;100.00
63111;BME280;49201;53.426;10.300;2023-04-25T05:00:45;100733.75;;;6.41;100.00
63111;BME280;49201;53.426;10.300;2023-04-25T05:03:28;100732.03;;;6.40;100.00
63111;BME280;49201;53.426;10.300;2023-04-25T05:06:20;100725.53;;;6.48;100.00
63111;BME280;49201;53.426;10.300;2023-04-25T05:09:00;100742.69;;;6.54;100.00
63111;BME280;49201;53.426;10.300;2023-04-25T05:11:46;100741.25;;;6.62;100.00
63111;BME280;49201;53.426;10.300;2023-04-25T05:14:38;100743.19;;;6.69;100.00
63111;BME280;49201;53.426;10.300;2023-04-25T05:17:15;100739.22;;;6.77;100.00
63111;BME280;49201;53.426;10.300;2023-04-25T05:20:01;100735.22;;;6.83;100.00
63111;BME280;49201;53.426;10.300;2023-04-25T05:22:53;100741.38;;;6.91;100.00
63111;BME280;49201;53.426;10.300;2023-04-25T05:25:50;100736.81;;;7.08;100.00
63111;BME280;49201;53.426;10.300;2023-04-25T05:28:51;100744.97;;;7.23;100.00
63111;BME280;49201;53.426;10.300;2023-04-25T05:31:36;100707.16;;;7.36;100.00
63111;BME280;49201;53.426;10.300;2023-04-25T05:34:08;100730.63;;;7.26;100.00
63111;BME280;49201;53.426;10.300;2023-04-25T05:36:41;100738.72;;;7.13;100.00
63111;BME280;49201;53.426;10.300;2023-04-25T05:39:06;100761.50;;;7.09;100.00
63111;BME280;49201;53.426;10.300;2023-04-25T05:41:58;100764.63;;;7.02;100.00
63111;BME280;49201;53.426;10.300;2023-04-25T05:44:44;100763.81;;;7.03;100.00
63111;BME280;49201;53.426;10.300;2023-04-25T05:47:32;100779.16;;;7.04;100.00
63111;BME280;49201;53.426;10.300;2023-04-25T05:50:18;100790.03;;;7.00;100.00
63111;BME280;49201;53.426;10.300;2023-04-25T05:53:13;100784.88;;;6.97;100.00
63111;BME280;49201;53.426;10.300;2023-04-25T05:55:40;100804.41;;;6.98;100.00
63111;BME280;49201;53.426;10.300;2023-04-25T05:58:24;100787.44;;;6.99;100.00
63111;BME280;49201;53.426;10.300;2023-04-25T06:00:49;100781.56;;;7.00;100.00
63111;BME280;49201;53.426;10.300;2023-04-25T06:03:16;100779.00;;;7.00;100.00
63111;BME280;49201;53.426;10.300;2023-04-25T06:05:42;100786.13;;;7.10;100.00
63111;BME280;49201;53.426;10.300;2023-04-25T06:08:08;100787.19;;;7.16;100.00
63111;BME280;49201;53.426;10.300;2023-04-25T06:10:34;100786.38;;;7.17;100.00
63111;BME280;49201;53.426;10.300;2023-04-25T06:12:59;100785.66;;;7.21;100.00
63111;BME280;49201;53.426;10.300;2023-04-25T06:15:25;100770.97;;;7.14;100.00
63111;BME280;49201;53.426;10.300;2023-04-25T06:17:50;100798.72;;;7.32;100.00
63111;BME280;49201;53.426;10.300;2023-04-25T06:20:16;100786.88;;;7.34;100.00
63111;BME280;49201;53.426;10.300;2023-04-25T06:22:41;100773.28;;;7.33;100.00
63111;BME280;49201;53.426;10.300;2023-04-25T06:25:07;100771.72;;;7.38;100.00
63111;BME280;49201;53.426;10.300;2023-04-25T06:27:34;100773.84;;;7.51;100.00
63111;BME280;49201;53.426;10.300;2023-04-25T06:30:00;100759.81;;;7.37;100.00
63111;BME280;49201;53.426;10.300;2023-04-25T06:32:26;100771.94;;;7.44;100.00
63111;BME280;49201;53.426;10.300;2023-04-25T06:34:53;100772.16;;;7.52;100.00
63111;BME280;49201;53.426;10.300;2023-04-25T06:37:19;100770.66;;;7.58;100.00
63111;BME280;49201;53.426;10.300;2023-04-25T06:39:45;100763.00;;;7.86;100.00
63111;BME280;49201;53.426;10.300;2023-04-25T06:42:10;100734.03;;;7.83;100.00
63111;BME280;49201;53.426;10.300;2023-04-25T06:44:44;100754.28;;;7.78;100.00
63111;BME280;49201;53.426;10.300;2023-04-25T06:47:11;100772.47;;;7.90;100.00
63111;BME280;49201;53.426;10.300;2023-04-25T06:49:38;100752.91;;;7.89;100.00
63111;BME280;49201;53.426;10.300;2023-04-25T06:52:04;100752.56;;;7.77;100.00
63111;BME280;49201;53.426;10.300;2023-04-25T06:54:29;100783.19;;;7.79;100.00
63111;BME280;49201;53.426;10.300;2023-04-25T06:57:02;100806.47;;;7.91;100.00
63111;BME280;49201;53.426;10.300;2023-04-25T06:59:28;100769.72;;;7.84;100.00
63111;BME280;49201;53.426;10.300;2023-04-25T07:01:53;100779.25;;;7.90;100.00
63111;BME280;49201;53.426;10.300;2023-04-25T07:04:24;100774.56;;;8.03;100.00
63111;BME280;49201;53.426;10.300;2023-04-25T07:06:54;100820.13;;;8.21;100.00
63111;BME280;49201;53.426;10.300;2023-04-25T07:09:26;100774.88;;;8.15;100.00
63111;BME280;49201;53.426;10.300;2023-04-25T07:11:51;100761.09;;;8.38;100.00
63111;BME280;49201;53.426;10.300;2023-04-25T07:14:17;100765.00;;;8.57;100.00
63111;BME280;49201;53.426;10.300;2023-04-25T07:16:43;100766.41;;;8.78;100.00
63111;BME280;49201;53.426;10.300;2023-04-25T07:19:09;100712.91;;;8.83;100.00
63111;BME280;49201;53.426;10.300;2023-04-25T07:21:35;100706.00;;;9.14;100.00
63111;BME280;49201;53.426;10.300;2023-04-25T07:24:02;100661.59;;;9.08;100.00
63111;BME280;49201;53.426;10.300;2023-04-25T07:26:32;100645.50;;;9.13;100.00
63111;BME280;49201;53.426;10.300;2023-04-25T07:29:21;100619.72;;;9.40;100.00
63111;BME280;49201;53.426;10.300;2023-04-25T07:31:46;100627.19;;;9.31;100.00
63111;BME280;49201;53.426;10.300;2023-04-25T07:34:12;100636.44;;;9.26;100.00
63111;BME280;49201;53.426;10.300;2023-04-25T07:36:37;100634.88;;;9.32;100.00
63111;BME280;49201;53.426;10.300;2023-04-25T07:39:03;100573.69;;;9.38;100.00
63111;BME280;49201;53.426;10.300;2023-04-25T07:41:29;100593.94;;;9.29;100.00
63111;BME280;49201;53.426;10.300;2023-04-25T07:43:54;100582.59;;;9.60;100.00
63111;BME280;49201;53.426;10.300;2023-04-25T07:46:20;100600.56;;;9.64;100.00
63111;BME280;49201;53.426;10.300;2023-04-25T07:48:45;100601.97;;;9.47;100.00
63111;BME280;49201;53.426;10.300;2023-04-25T07:51:11;100606.56;;;9.65;100.00
63111;BME280;49201;53.426;10.300;2023-04-25T07:53:37;100619.19;;;9.57;100.00
63111;BME280;49201;53.426;10.300;2023-04-25T07:56:07;100615.53;;;9.45;100.00
63111;BME280;49201;53.426;10.300;2023-04-25T07:58:36;100614.59;;;9.40;100.00
63111;BME280;49201;53.426;10.300;2023-04-25T08:01:03;100595.47;;;9.21;100.00
63111;BME280;49201;53.426;10.300;2023-04-25T08:03:35;100651.78;;;9.27;100.00
63111;BME280;49201;53.426;10.300;2023-04-25T08:06:04;100645.06;;;9.31;100.00
63111;BME280;49201;53.426;10.300;2023-04-25T08:08:31;100640.34;;;9.49;100.00
63111;BME280;49201;53.426;10.300;2023-04-25T08:10:57;100635.13;;;9.44;100.00
63111;BME280;49201;53.426;10.300;2023-04-25T08:13:23;100674.84;;;9.70;100.00
63111;BME280;49201;53.426;10.300;2023-04-25T08:15:49;100612.72;;;9.74;100.00
63111;BME280;49201;53.426;10.300;2023-04-25T08:18:14;100580.94;;;9.62;100.00
63111;BME280;49201;53.426;10.300;2023-04-25T08:20:41;100577.66;;;10.15;100.00
63111;BME280;49201;53.426;10.300;2023-04-25T08:23:09;100546.00;;;10.62;100.00
63111;BME280;49201;53.426;10.300;2023-04-25T08:25:59;100516.88;;;10.55;100.00
63111;BME280;49201;53.426;10.300;2023-04-25T08:28:26;100521.56;;;10.86;100.00
63111;BME280;49201;53.426;10.300;2023-04-25T08:30:52;100454.00;;;10.75;100.00
63111;BME280;49201;53.426;10.300;2023-04-25T08:33:19;100407.28;;;10.99;100.00
63111;BME280;49201;53.426;10.300;2023-04-25T08:35:47;100404.72;;;10.97;100.00
63111;BME280;49201;53.426;10.300;2023-04-25T08:38:14;100371.84;;;10.59;100.00
63111;BME280;49201;53.426;10.300;2023-04-25T08:40:40;100405.56;;;10.26;100.00
63111;BME280;49201;53.426;10.300;2023-04-25T08:43:13;100480.66;;;10.30;100.00
63111;BME280;49201;53.426;10.300;2023-04-25T08:45:41;100493.34;;;10.22;100.00
63111;BME280;49201;53.426;10.300;2023-04-25T08:48:14;100444.06;;;10.34;100.00
63111;BME280;49201;53.426;10.300;2023-04-25T08:50:49;100414.13;;;10.27;100.00
63111;BME280;49201;53.426;10.300;2023-04-25T08:53:17;100407.41;;;10.36;100.00
63111;BME280;49201;53.426;10.300;2023-04-25T08:55:48;100367.63;;;10.62;100.00
63111;BME280;49201;53.426;10.300;2023-04-25T08:58:15;100355.34;;;10.34;100.00
63111;BME280;49201;53.426;10.300;2023-04-25T09:00:40;100374.78;;;10.22;100.00
63111;BME280;49201;53.426;10.300;2023-04-25T09:03:06;100344.28;;;10.35;100.00
63111;BME280;49201;53.426;10.300;2023-04-25T09:05:33;100380.03;;;10.29;100.00
63111;BME280;49201;53.426;10.300;2023-04-25T09:08:00;100392.50;;;10.07;100.00
63111;BME280;49201;53.426;10.300;2023-04-25T09:10:26;100414.56;;;10.02;100.00
63111;BME280;49201;53.426;10.300;2023-04-25T09:13:08;100391.44;;;9.94;100.00
63111;BME280;49201;53.426;10.300;2023-04-25T09:16:07;100345.09;;;11.13;99.10
63111;BME280;49201;53.426;10.300;2023-04-25T09:18:53;100364.88;;;11.26;100.00
63111;BME280;49201;53.426;10.300;2023-04-25T09:21:22;100335.84;;;11.29;97.90
63111;BME280;49201;53.426;10.300;2023-04-25T09:23:48;100355.22;;;10.98;100.00
63111;BME280;49201;53.426;10.300;2023-04-25T09:26:16;100430.63;;;10.50;100.00
63111;BME280;49201;53.426;10.300;2023-04-25T09:28:43;100715.25;;;9.48;100.00
63111;BME280;49201;53.426;10.300;2023-04-25T09:31:11;100873.53;;;9.06;100.00
63111;BME280;49201;53.426;10.300;2023-04-25T09:33:43;100841.00;;;8.67;100.00
63111;BME280;49201;53.426;10.300;2023-04-25T09:36:09;100890.38;;;8.69;100.00
63111;BME280;49201;53.426;10.300;2023-04-25T09:38:56;100887.09;;;8.43;100.00
63111;BME280;49201;53.426;10.300;2023-04-25T09:41:26;100968.41;;;8.33;100.00
63111;BME280;49201;53.426;10.300;2023-04-25T09:43:57;101025.94;;;8.23;100.00
63111;BME280;49201;53.426;10.300;2023-04-25T09:46:25;101014.09;;;8.24;100.00
63111;BME280;49201;53.426;10.300;2023-04-25T09:48:57;101015.22;;;8.33;100.00
63111;BME280;49201;53.426;10.300;2023-04-25T09:51:33;100968.13;;;8.22;100.00
63111;BME280;49201;53.426;10.300;2023-04-25T09:53:59;100989.97;;;8.42;100.00
63111;BME280;49201;53.426;10.300;2023-04-25T09:56:36;100954.28;;;8.72;100.00
63111;BME280;49201;53.426;10.300;2023-04-25T09:59:05;100902.06;;;9.23;100.00
63111;BME280;49201;53.426;10.300;2023-04-25T10:01:34;100841.28;;;9.82;100.00
63111;BME280;49201;53.426;10.300;2023-04-25T10:04:11;100764.44;;;10.15;100.00
63111;BME280;49201;53.426;10.300;2023-04-25T10:06:48;100719.00;;;10.48;100.00
63111;BME280;49201;53.426;10.300;2023-04-25T10:09:16;100714.09;;;10.60;100.00
63111;BME280;49201;53.426;10.300;2023-04-25T10:11:46;100700.88;;;10.86;100.00
63111;BME280;49201;53.426;10.300;2023-04-25T10:14:13;100692.81;;;10.62;100.00
63111;BME280;49201;53.426;10.300;2023-04-25T10:16:41;100661.53;;;10.81;100.00
63111;BME280;49201;53.426;10.300;2023-04-25T10:19:07;100638.47;;;10.81;100.00
63111;BME280;49201;53.426;10.300;2023-04-25T10:21:33;100514.47;;;11.33;100.00
63111;BME280;49201;53.426;10.300;2023-04-25T10:23:59;100498.91;;;11.19;100.00
63111;BME280;49201;53.426;10.300;2023-04-25T10:26:25;100518.06;;;10.80;100.00
63111;BME280;49201;53.426;10.300;2023-04-25T10:28:59;100486.28;;;10.64;100.00
63111;BME280;49201;53.426;10.300;2023-04-25T10:31:25;100434.72;;;11.07;95.64
63111;BME280;49201;53.426;10.300;2023-04-25T10:33:51;100388.41;;;11.77;92.37
63111;BME280;49201;53.426;10.300;2023-04-25T10:36:23;100421.25;;;12.34;99.29
63111;BME280;49201;53.426;10.300;2023-04-25T10:38:50;100414.38;;;12.28;97.00
63111;BME280;49201;53.426;10.300;2023-04-25T10:41:21;100325.34;;;12.17;85.46
63111;BME280;49201;53.426;10.300;2023-04-25T10:43:49;100378.41;;;12.25;90.26
63111;BME280;49201;53.426;10.300;2023-04-25T10:46:22;100328.78;;;12.22;84.00
63111;BME280;49201;53.426;10.300;2023-04-25T10:48:52;100300.47;;;12.05;82.09
63111;BME280;49201;53.426;10.300;2023-04-25T10:51:36;100367.94;;;11.85;91.96
63111;BME280;49201;53.426;10.300;2023-04-25T10:54:03;100374.25;;;12.54;93.01
63111;BME280;49201;53.426;10.300;2023-04-25T10:56:33;100359.06;;;13.21;88.17
63111;BME280;49201;53.426;10.300;2023-04-25T10:59:10;100248.47;;;13.25;75.61
63111;BME280;49201;53.426;10.300;2023-04-25T11:04:06;100237.31;;;13.28;71.62
63111;BME280;49201;53.426;10.300;2023-04-25T11:06:42;100194.50;;;12.60;66.08
63111;BME280;49201;53.426;10.300;2023-04-25T11:09:12;100261.06;;;11.93;72.36
63111;BME280;49201;53.426;10.300;2023-04-25T11:11:38;100367.75;;;11.64;86.39
63111;BME280;49201;53.426;10.300;2023-04-25T11:14:04;100365.72;;;11.24;82.07
63111;BME280;49201;53.426;10.300;2023-04-25T11:16:30;100417.53;;;10.99;90.61
63111;BME280;49201;53.426;10.300;2023-04-25T11:18:59;100447.34;;;10.89;92.03
63111;BME280;49201;53.426;10.300;2023-04-25T11:21:25;100448.22;;;10.91;89.29
63111;BME280;49201;53.426;10.300;2023-04-25T11:23:55;100446.66;;;11.05;89.73
63111;BME280;49201;53.426;10.300;2023-04-25T11:26:22;100513.56;;;10.61;99.28
63111;BME280;49201;53.426;10.300;2023-04-25T11:28:49;100570.78;;;10.64;100.00
63111;BME280;49201;53.426;10.300;2023-04-25T11:31:14;100554.28;;;10.47;100.00
63111;BME280;49201;53.426;10.300;2023-04-25T11:33:40;100584.59;;;10.74;100.00
63111;BME280;49201;53.426;10.300;2023-04-25T11:36:06;100551.72;;;11.07;99.06
63111;BME280;49201;53.426;10.300;2023-04-25T11:38:31;100538.56;;;11.51;97.38
63111;BME280;49201;53.426;10.300;2023-04-25T11:40:57;100485.31;;;12.14;92.60
63111;BME280;49201;53.426;10.300;2023-04-25T11:43:23;100382.63;;;12.17;78.54
63111;BME280;49201;53.426;10.300;2023-04-25T11:45:49;100325.31;;;12.15;73.25
63111;BME280;49201;53.426;10.300;2023-04-25T11:48:16;100325.47;;;12.51;71.61
63111;BME280;49201;53.426;10.300;2023-04-25T11:50:42;100311.03;;;13.15;69.97
63111;BME280;49201;53.426;10.300;2023-04-25T11:53:08;100264.75;;;13.39;65.28
63111;BME280;49201;53.426;10.300;2023-04-25T11:55:33;100306.69;;;12.93;67.85
63111;BME280;49201;53.426;10.300;2023-04-25T11:58:00;100303.28;;;12.89;69.35
63111;BME280;49201;53.426;10.300;2023-04-25T12:00:26;100305.06;;;13.12;68.54
63111;BME280;49201;53.426;10.300;2023-04-25T12:02:56;100376.94;;;12.90;76.43
63111;BME280;49201;53.426;10.300;2023-04-25T12:05:25;100420.25;;;11.14;79.44
63111;BME280;49201;53.426;10.300;2023-04-25T12:07:51;100633.81;;;10.07;100.00
63111;BME280;49201;53.426;10.300;2023-04-25T12:10:18;100680.66;;;9.63;100.00
63111;BME280;49201;53.426;10.300;2023-04-25T12:12:45;100721.63;;;9.66;100.00
63111;BME280;49201;53.426;10.300;2023-04-25T12:15:12;100709.97;;;9.79;100.00
63111;BME280;49201;53.426;10.300;2023-04-25T12:17:50;100729.91;;;9.95;100.00
63111;BME280;49201;53.426;10.300;2023-04-25T12:20:18;100714.56;;;9.95;100.00
63111;BME280;49201;53.426;10.300;2023-04-25T12:22:47;100687.50;;;10.06;100.00
63111;BME280;49201;53.426;10.300;2023-04-25T12:25:41;100634.91;;;10.20;95.44
63111;BME280;49201;53.426;10.300;2023-04-25T12:28:18;100614.00;;;11.01;92.80
63111;BME280;49201;53.426;10.300;2023-04-25T12:31:03;100502.31;;;12.03;81.84
63111;BME280;49201;53.426;10.300;2023-04-25T12:33:32;100419.47;;;12.19;73.80
63111;BME280;49201;53.426;10.300;2023-04-25T12:35:58;100428.22;;;12.63;79.88
63111;BME280;49201;53.426;10.300;2023-04-25T12:38:26;100394.84;;;12.65;73.71
63111;BME280;49201;53.426;10.300;2023-04-25T12:40:52;100356.34;;;12.80;65.87
63111;BME280;49201;53.426;10.300;2023-04-25T12:43:17;100304.97;;;12.89;64.19
63111;BME280;49201;53.426;10.300;2023-04-25T12:45:44;100308.44;;;12.91;63.98
63111;BME280;49201;53.426;10.300;2023-04-25T12:48:10;100324.78;;;13.32;66.17
63111;BME280;49201;53.426;10.300;2023-04-25T12:50:35;100286.97;;;12.72;60.68
63111;BME280;49201;53.426;10.300;2023-04-25T12:53:01;100337.44;;;12.46;64.98